Indira Gandhi International Airport
VIDP : now visible

Airfield :











YOU CAN JOIN US ON...

 
LOGIN :

Register | Disclaimer

   EN    FR    IT 

 









Legend :    VFR   Marginal VFR   IFR   Intensive IFR   Very Intensive IFR
Visi :
Ceiling :
>= 8 km
>= 3000ft
5 to 8 km
1000 to 3000 ft
1500m to 5 km
500 to 1000 ft
800 to 1500m
200 to 500 ft
< 800m
< 200 ft
Symbols :   Thunderstorms  Fog  Heavy snow  Heavy precipitations  Wind > 20 kt






- Airport Elevation : 777 ft
- IATA code : DEL


VIDP - Indira Gandhi International

CURRENT METAR :
  • 011800Z 30007KT 3500 HZ FEW100 23/14 Q1011 NOSIG

EXPIRED METARs :
  • 011730Z 29007KT 3500 HZ FEW100 23/14 Q1011 NOSIG
  • 011700Z 29007KT 3500 HZ FEW100 23/14 Q1011 NOSIG
  • 011630Z 30006KT 3500 HZ FEW100 24/14 Q1011 NOSIG
  • 011600Z 30005KT 3500 HZ FEW100 24/14 Q1011 NOSIG
  • 011530Z 30005KT 3500 HZ FEW100 26/14 Q1011 NOSIG

TAF TAF VIDP
Valid from the 01 at 18:00 until the 03 at 00:00 UTC


011700Z 0118/0224 32010KT 3000 HZ BR FEW100
BECMG 0201/0203 1500 BR NSC
BECMG 0204/0206 29008G18KT 3000 HZ
BECMG 0208/0210 5000 HZ
BECMG 0215/0217 27010KT 3000 HZ
BECMG 0221/0223 29010G25KT 1500 HZ BR



MET'MAP, your aeronautical weather chart ! - Copyright ORBIFLY December 2007 - Disclaimer

ORBIFLY MET'MAP TEAM :

Programming & Development : Alexandra Zaïnal
Concept & original design : Baudouin d'Aumeries
Assistance for programming : Marc-Olivier Méhu
Technical & hardware support : Manuel Goepfert

Contact : metmap@orbifly.com




SOURCES & CREDITS :

   NOAA       Earth
Advisory